Time;durP1;ratioP1;P1;durP2;ratioP2;P2;SDS_P1;SDS_P2;PMS_P1;PMS_P2;Temp;Humidity;BMP_temperature;BMP_pressure;BME280_temperature;BME280_humidity;BME280_pressure;Samples;Min_cycle;Max_cycle;Signal;HPM_P1;HPM_P2
2022/07/19 00:02:24;;;;;;;8.50;7.53;;;23.20;61.90;;;;;;5017483;28;21017;-85
2022/07/19 00:04:51;;;;;;;7.50;6.90;;;23.10;62.30;;;;;;5017281;28;20477;-85
2022/07/19 00:07:17;;;;;;;11.50;7.00;;;23.10;62.80;;;;;;5016948;28;20862;-85
2022/07/19 00:09:44;;;;;;;8.90;7.60;;;23.00;63.30;;;;;;5022662;28;20505;-85
2022/07/19 00:12:13;;;;;;;7.90;7.10;;;22.90;64.20;;;;;;5028649;28;20455;-85
2022/07/19 00:14:41;;;;;;;8.80;6.93;;;22.80;64.70;;;;;;5020938;28;20470;-85
2022/07/19 00:17:08;;;;;;;8.80;6.90;;;22.80;65.20;;;;;;5021715;28;20454;-85
2022/07/19 00:19:35;;;;;;;10.50;6.20;;;22.80;65.70;;;;;;5019362;28;20447;-85
2022/07/19 00:22:01;;;;;;;8.97;6.20;;;22.80;65.60;;;;;;5018987;28;20455;-85
2022/07/19 00:24:28;;;;;;;7.30;6.00;;;22.60;65.40;;;;;;5018154;28;20722;-85
2022/07/19 00:26:55;;;;;;;7.50;6.90;;;22.60;65.60;;;;;;5017038;28;20493;-85
2022/07/19 00:29:21;;;;;;;11.90;6.03;;;22.60;65.80;;;;;;5017127;28;20497;-85
2022/07/19 00:31:50;;;;;;;7.00;6.00;;;22.60;65.80;;;;;;5017078;28;20450;-85
2022/07/19 00:34:16;;;;;;;8.40;7.50;;;22.50;66.10;;;;;;5019494;28;20561;-85
2022/07/19 00:36:43;;;;;;;11.33;7.30;;;22.50;66.60;;;;;;5017673;28;20926;-85
2022/07/19 00:39:10;;;;;;;8.70;7.80;;;22.50;66.60;;;;;;5017031;28;20455;-85
2022/07/19 00:41:41;;;;;;;10.00;8.17;;;22.50;67.00;;;;;;5017061;28;20477;-85
2022/07/19 00:44:08;;;;;;;8.00;7.20;;;22.40;67.50;;;;;;5017907;28;20562;-85
2022/07/19 00:46:34;;;;;;;10.30;7.00;;;22.40;67.60;;;;;;5017095;28;20474;-85
2022/07/19 00:49:03;;;;;;;8.43;6.80;;;22.40;67.70;;;;;;5018960;28;20439;-85
2022/07/19 00:51:30;;;;;;;9.07;7.27;;;22.40;67.10;;;;;;5029344;28;20423;-87
2022/07/19 00:53:58;;;;;;;7.60;6.93;;;22.40;67.00;;;;;;5037273;28;20474;-84
2022/07/19 00:56:27;;;;;;;8.07;7.23;;;22.40;67.10;;;;;;5037722;28;20457;-84
2022/07/19 00:58:54;;;;;;;8.10;6.37;;;22.30;67.50;;;;;;5038372;28;20442;-85
2022/07/19 01:01:21;;;;;;;11.90;7.47;;;22.40;67.40;;;;;;5036443;28;20450;-85
2022/07/19 01:03:49;;;;;;;9.83;6.90;;;22.40;67.70;;;;;;5023625;28;20470;-86
2022/07/19 01:06:17;;;;;;;9.30;6.40;;;22.30;68.30;;;;;;5019029;28;20457;-85
2022/07/19 01:08:43;;;;;;;8.80;7.23;;;22.10;69.20;;;;;;5024247;28;20445;-85
2022/07/19 01:11:10;;;;;;;7.37;6.20;;;22.10;69.60;;;;;;5027411;28;20442;-86
2022/07/19 01:13:37;;;;;;;7.90;7.03;;;22.00;70.00;;;;;;5019622;28;20546;-85
2022/07/19 01:16:04;;;;;;;8.67;7.80;;;22.10;70.10;;;;;;5018068;28;20446;-86
2022/07/19 01:18:31;;;;;;;7.70;6.80;;;22.00;70.10;;;;;;5017988;28;20500;-85
2022/07/19 01:20:59;;;;;;;12.13;6.93;;;22.00;70.10;;;;;;5016890;28;20454;-85
2022/07/19 01:23:27;;;;;;;8.40;6.53;;;22.00;70.70;;;;;;5016989;28;20462;-85
2022/07/19 01:25:53;;;;;;;7.70;6.90;;;21.90;70.80;;;;;;5017210;28;20824;-86
2022/07/19 01:28:20;;;;;;;8.53;7.70;;;21.80;71.50;;;;;;5022230;28;20478;-86
2022/07/19 01:30:47;;;;;;;9.27;7.90;;;21.80;72.70;;;;;;5021274;28;20447;-86
2022/07/19 01:33:14;;;;;;;9.10;8.20;;;21.70;72.30;;;;;;5019617;28;20478;-86
2022/07/19 01:35:41;;;;;;;7.80;7.07;;;21.70;73.60;;;;;;5017199;28;20493;-85
2022/07/19 01:38:07;;;;;;;9.70;8.27;;;21.60;73.80;;;;;;5017294;28;20443;-86
2022/07/19 01:40:35;;;;;;;9.10;7.67;;;21.50;74.60;;;;;;5017790;28;20463;-86
2022/07/19 01:43:02;;;;;;;12.13;9.70;;;21.40;75.30;;;;;;5013695;28;20586;-86
2022/07/19 01:45:28;;;;;;;8.87;7.90;;;21.40;74.60;;;;;;5013455;28;20457;-85
2022/07/19 01:47:55;;;;;;;10.80;8.77;;;21.40;74.80;;;;;;5014105;28;20643;-86
2022/07/19 01:50:22;;;;;;;15.57;8.43;;;21.30;75.10;;;;;;5014255;28;20446;-86
2022/07/19 01:52:49;;;;;;;9.27;8.10;;;21.30;75.30;;;;;;5014389;28;20939;-85
2022/07/19 01:55:15;;;;;;;9.10;8.30;;;21.40;75.60;;;;;;5013934;28;20470;-86
2022/07/19 01:57:43;;;;;;;10.30;9.30;;;21.30;75.70;;;;;;5014754;28;20469;-86
2022/07/19 02:00:11;;;;;;;9.83;8.70;;;21.30;76.20;;;;;;5016015;28;20453;-86
2022/07/19 02:02:38;;;;;;;14.53;9.93;;;21.30;76.50;;;;;;5015921;28;20447;-86
2022/07/19 02:05:05;;;;;;;15.27;9.87;;;21.20;76.70;;;;;;5015007;28;20534;-86
2022/07/19 02:07:32;;;;;;;13.67;10.57;;;21.20;77.20;;;;;;5015715;28;21263;-86
2022/07/19 02:09:59;;;;;;;10.47;8.33;;;21.20;77.50;;;;;;5015780;28;20457;-86
2022/07/19 02:12:26;;;;;;;10.10;8.17;;;21.20;77.40;;;;;;5015863;28;20574;-85
2022/07/19 02:14:54;;;;;;;9.00;7.43;;;21.10;76.20;;;;;;5015044;28;20474;-85
2022/07/19 02:17:20;;;;;;;12.40;8.83;;;21.10;76.20;;;;;;5015551;28;20450;-86
2022/07/19 02:19:47;;;;;;;8.77;7.83;;;21.10;75.90;;;;;;5015846;28;20446;-85
2022/07/19 02:22:14;;;;;;;10.17;6.73;;;21.00;75.90;;;;;;5020375;28;20442;-86
2022/07/19 02:24:42;;;;;;;11.83;7.73;;;21.10;75.70;;;;;;5015671;28;20744;-86
2022/07/19 02:27:10;;;;;;;8.20;7.40;;;21.00;75.70;;;;;;5016430;28;20482;-85
2022/07/19 02:29:36;;;;;;;9.87;7.67;;;20.90;76.20;;;;;;5015679;28;20458;-86
2022/07/19 02:32:05;;;;;;;12.27;6.70;;;20.90;77.20;;;;;;5015830;28;20451;-85
2022/07/19 02:34:32;;;;;;;11.27;6.97;;;20.80;76.80;;;;;;5015209;28;20462;-86
2022/07/19 02:36:59;;;;;;;10.23;7.50;;;20.90;76.80;;;;;;5015859;28;20465;-85
2022/07/19 02:39:25;;;;;;;8.43;7.63;;;20.80;77.50;;;;;;5016055;28;20446;-85
2022/07/19 02:41:52;;;;;;;10.23;7.70;;;20.70;77.60;;;;;;5015834;28;20512;-85
2022/07/19 02:44:19;;;;;;;9.50;8.57;;;20.70;78.00;;;;;;5024344;28;20489;-86
2022/07/19 02:46:46;;;;;;;9.53;8.73;;;20.70;78.40;;;;;;5032300;28;20447;-86
2022/07/19 02:49:14;;;;;;;8.20;6.90;;;20.70;78.60;;;;;;5020736;28;20501;-85
2022/07/19 02:51:40;;;;;;;11.07;9.03;;;20.70;78.60;;;;;;5036791;28;20427;-85
2022/07/19 02:54:07;;;;;;;10.60;7.50;;;20.70;78.90;;;;;;5019689;28;20470;-86
2022/07/19 02:56:35;;;;;;;9.80;8.40;;;20.60;79.20;;;;;;5017124;28;20920;-85
2022/07/19 02:59:02;;;;;;;8.27;7.27;;;20.60;79.60;;;;;;5016093;28;20895;-86
2022/07/19 03:01:29;;;;;;;8.50;7.70;;;20.60;80.10;;;;;;5015217;28;20486;-85
2022/07/19 03:03:56;;;;;;;9.20;8.30;;;20.60;80.50;;;;;;5014935;28;20494;-86
2022/07/19 03:06:24;;;;;;;14.13;8.47;;;20.60;81.00;;;;;;5015250;28;20458;-86
2022/07/19 03:08:51;;;;;;;8.80;7.90;;;20.50;81.70;;;;;;5017564;28;20494;-85
2022/07/19 03:11:17;;;;;;;10.27;9.00;;;20.50;82.00;;;;;;5022379;28;20975;-86
2022/07/19 03:13:44;;;;;;;12.17;8.93;;;20.40;82.20;;;;;;5022338;28;20462;-86
2022/07/19 03:16:11;;;;;;;10.43;9.33;;;20.40;82.50;;;;;;5020642;28;20447;-86
2022/07/19 03:18:37;;;;;;;12.40;9.10;;;20.40;82.90;;;;;;5016516;28;20450;-86
2022/07/19 03:21:05;;;;;;;10.27;7.80;;;20.20;84.00;;;;;;5016733;28;20465;-86
2022/07/19 03:23:34;;;;;;;12.73;8.37;;;20.20;84.30;;;;;;5017444;28;20473;-86
2022/07/19 03:26:01;;;;;;;16.90;9.10;;;20.20;85.20;;;;;;5017503;28;20976;-86
2022/07/19 03:28:28;;;;;;;22.50;9.23;;;20.10;85.80;;;;;;5029578;28;20478;-86
2022/07/19 03:30:55;;;;;;;21.73;9.50;;;20.20;85.70;;;;;;5034103;28;20445;-86
2022/07/19 03:33:21;;;;;;;12.83;9.03;;;20.20;85.80;;;;;;5027872;28;20501;-85
2022/07/19 03:35:48;;;;;;;11.50;9.40;;;20.20;85.90;;;;;;5024539;28;20450;-86
2022/07/19 03:38:16;;;;;;;10.30;8.97;;;20.10;85.90;;;;;;5022604;28;20816;-86
2022/07/19 03:40:45;;;;;;;9.57;8.63;;;20.10;85.40;;;;;;5020735;28;20446;-86
2022/07/19 03:43:11;;;;;;;12.63;8.83;;;20.00;86.00;;;;;;5025493;28;20463;-85
2022/07/19 03:45:38;;;;;;;12.63;8.37;;;19.90;86.40;;;;;;5035826;28;20438;-85
2022/07/19 03:48:05;;;;;;;9.40;8.03;;;19.90;87.10;;;;;;5028771;28;20478;-86
2022/07/19 03:50:32;;;;;;;11.57;9.27;;;19.90;86.80;;;;;;5021046;28;20443;-86
2022/07/19 03:52:58;;;;;;;10.30;9.20;;;19.90;86.60;;;;;;5021658;28;20446;-86
2022/07/19 03:55:25;;;;;;;9.80;8.80;;;19.90;86.30;;;;;;5017849;28;20447;-86
2022/07/19 03:57:53;;;;;;;8.10;7.50;;;19.90;86.50;;;;;;5015835;28;20454;-85
2022/07/19 04:00:20;;;;;;;9.83;8.83;;;19.90;86.10;;;;;;5015716;28;20458;-86
2022/07/19 04:02:47;;;;;;;9.23;7.80;;;19.80;87.40;;;;;;5016304;28;20504;-85
2022/07/19 04:05:13;;;;;;;9.17;8.17;;;19.90;86.20;;;;;;5016270;28;20837;-85
2022/07/19 04:07:40;;;;;;;7.70;6.87;;;19.90;85.60;;;;;;5018485;28;20485;-85
2022/07/19 04:10:07;;;;;;;12.30;7.83;;;19.80;85.80;;;;;;5018191;28;20458;-86
2022/07/19 04:12:35;;;;;;;10.00;7.20;;;19.80;86.40;;;;;;5017451;28;20885;-85
2022/07/19 04:15:04;;;;;;;10.63;7.20;;;19.80;87.10;;;;;;5029290;28;20463;-85
2022/07/19 04:17:30;;;;;;;8.27;7.53;;;19.80;88.20;;;;;;5035837;28;20469;-86
2022/07/19 04:19:57;;;;;;;9.07;8.10;;;19.80;87.30;;;;;;5021023;28;20449;-85
2022/07/19 04:22:24;;;;;;;9.10;7.70;;;19.80;87.40;;;;;;5020623;28;20450;-86
2022/07/19 04:24:51;;;;;;;7.30;6.60;;;19.80;87.10;;;;;;5021114;28;20737;-86
2022/07/19 04:27:18;;;;;;;10.10;7.87;;;19.90;86.80;;;;;;5020337;28;20489;-87
2022/07/19 04:29:45;;;;;;;9.37;8.47;;;19.90;86.90;;;;;;5026061;28;20443;-85
2022/07/19 04:32:13;;;;;;;11.03;8.80;;;20.00;87.00;;;;;;5024027;28;20446;-86
2022/07/19 04:34:39;;;;;;;12.70;8.83;;;20.00;87.30;;;;;;5019024;28;20524;-86
2022/07/19 04:37:06;;;;;;;17.30;9.00;;;20.00;87.60;;;;;;5037225;28;20439;-85
2022/07/19 04:39:33;;;;;;;12.37;8.37;;;20.10;87.90;;;;;;5025979;28;20442;-86
2022/07/19 04:41:59;;;;;;;11.10;8.20;;;20.10;88.30;;;;;;5021406;28;20454;-86
2022/07/19 04:44:26;;;;;;;14.70;8.60;;;20.10;88.50;;;;;;5027260;28;20498;-85
2022/07/19 04:46:53;;;;;;;12.77;9.00;;;20.10;88.60;;;;;;5037926;28;20423;-86
2022/07/19 04:49:21;;;;;;;10.80;8.20;;;20.10;89.20;;;;;;5021480;28;20460;-85
2022/07/19 04:51:47;;;;;;;13.53;7.70;;;20.10;88.90;;;;;;5020043;28;20482;-86
2022/07/19 04:54:14;;;;;;;12.30;8.70;;;20.20;88.90;;;;;;5019404;28;20478;-86
2022/07/19 04:56:41;;;;;;;12.80;7.87;;;20.20;88.20;;;;;;5018634;28;20477;-86
2022/07/19 04:59:07;;;;;;;10.83;8.50;;;20.30;88.50;;;;;;5018997;28;20482;-87
2022/07/19 05:01:35;;;;;;;10.70;8.23;;;20.30;88.10;;;;;;5017837;28;20457;-86
2022/07/19 05:04:05;;;;;;;8.70;7.70;;;20.30;87.20;;;;;;5018124;28;20562;-86
2022/07/19 05:06:33;;;;;;;8.77;7.57;;;20.30;86.90;;;;;;5018016;28;20541;-85
2022/07/19 05:08:59;;;;;;;9.53;8.50;;;20.30;86.90;;;;;;5029194;28;20443;-85
2022/07/19 05:11:26;;;;;;;10.83;8.70;;;20.40;86.60;;;;;;5034517;28;20962;-85
2022/07/19 05:13:53;;;;;;;9.23;8.43;;;20.40;86.80;;;;;;5036191;28;20537;-85
2022/07/19 05:16:19;;;;;;;10.60;8.60;;;20.50;85.60;;;;;;5028724;28;20447;-86
2022/07/19 05:18:46;;;;;;;12.30;8.03;;;20.60;85.50;;;;;;5020267;28;20494;-85
2022/07/19 05:21:13;;;;;;;11.40;7.80;;;20.90;83.90;;;;;;5019307;28;20446;-86
2022/07/19 05:23:42;;;;;;;10.17;7.53;;;21.50;81.50;;;;;;5019115;28;20465;-86
2022/07/19 05:26:09;;;;;;;12.10;7.23;;;22.10;78.30;;;;;;5016494;28;20491;-86
2022/07/19 05:28:35;;;;;;;11.97;6.87;;;22.90;75.50;;;;;;5017259;28;20443;-83
2022/07/19 05:31:03;;;;;;;17.10;7.40;;;23.40;72.10;;;;;;5016464;28;20446;-84
2022/07/19 05:33:30;;;;;;;12.10;7.50;;;23.90;68.30;;;;;;5015860;28;20821;-84
2022/07/19 05:35:56;;;;;;;10.50;6.07;;;24.30;66.70;;;;;;5015499;28;20466;-85
2022/07/19 05:38:23;;;;;;;10.23;6.50;;;24.90;65.20;;;;;;5015988;28;20502;-85
2022/07/19 05:40:51;;;;;;;15.23;6.47;;;25.20;62.50;;;;;;5017494;28;20818;-85
2022/07/19 05:43:18;;;;;;;17.70;6.53;;;25.50;60.50;;;;;;5016003;28;20490;-85
2022/07/19 05:45:45;;;;;;;9.93;7.03;;;25.90;59.70;;;;;;5016014;28;20820;-85
2022/07/19 05:48:12;;;;;;;11.23;7.07;;;26.50;58.90;;;;;;5014471;28;20452;-86
2022/07/19 05:50:38;;;;;;;10.20;7.53;;;26.90;57.30;;;;;;5014832;28;20443;-86
2022/07/19 05:53:05;;;;;;;15.40;7.40;;;27.40;56.10;;;;;;5014408;28;20457;-87
2022/07/19 05:55:32;;;;;;;10.80;6.57;;;27.80;54.90;;;;;;5052204;22;20493;-83
2022/07/19 05:58:00;;;;;;;10.63;7.20;;;27.90;54.10;;;;;;5044068;28;20505;-84
2022/07/19 06:00:27;;;;;;;9.27;7.67;;;28.30;53.50;;;;;;5041810;28;20438;-83
2022/07/19 06:02:53;;;;;;;8.03;7.20;;;28.80;52.10;;;;;;5041807;28;20512;-83
2022/07/19 06:05:20;;;;;;;8.73;7.80;;;29.10;50.70;;;;;;5052348;28;20457;-84
2022/07/19 06:07:47;;;;;;;10.87;8.00;;;29.20;49.80;;;;;;5043468;28;20448;-83
2022/07/19 06:10:14;;;;;;;7.83;6.83;;;29.30;49.70;;;;;;5042917;28;20437;-84
2022/07/19 06:12:40;;;;;;;11.07;7.70;;;29.50;48.90;;;;;;5045497;28;20964;-83
2022/07/19 06:15:10;;;;;;;8.90;8.10;;;29.50;49.20;;;;;;5042492;28;20461;-84
2022/07/19 06:17:36;;;;;;;7.00;6.40;;;29.80;48.40;;;;;;5040396;28;20536;-84
2022/07/19 06:20:04;;;;;;;8.43;6.40;;;29.90;48.00;;;;;;5043077;28;20513;-83
2022/07/19 06:22:31;;;;;;;7.40;5.10;;;30.00;47.50;;;;;;5054795;28;20461;-82
2022/07/19 06:24:58;;;;;;;13.23;6.60;;;30.20;46.90;;;;;;5056781;28;20472;-82
2022/07/19 06:27:25;;;;;;;11.20;5.80;;;30.60;46.20;;;;;;5043204;28;20443;-83
2022/07/19 06:29:51;;;;;;;9.27;4.80;;;30.90;45.00;;;;;;5037595;28;20442;-84
2022/07/19 06:32:19;;;;;;;7.53;4.10;;;31.70;44.10;;;;;;5039633;28;20449;-84
2022/07/19 06:34:46;;;;;;;7.03;5.47;;;32.00;43.20;;;;;;5039877;28;20445;-83
2022/07/19 06:37:13;;;;;;;6.33;4.90;;;31.90;42.60;;;;;;5040677;28;20458;-84
2022/07/19 06:39:39;;;;;;;9.57;5.60;;;32.40;42.40;;;;;;5040582;28;20540;-84
2022/07/19 06:42:06;;;;;;;6.77;6.00;;;32.70;41.90;;;;;;5040461;28;20454;-85
2022/07/19 06:44:33;;;;;;;8.13;5.70;;;32.80;41.60;;;;;;5041217;28;20533;-84
2022/07/19 06:46:59;;;;;;;6.20;5.60;;;33.30;41.20;;;;;;5039912;28;20476;-84
2022/07/19 06:49:27;;;;;;;10.17;5.73;;;33.50;40.50;;;;;;5040568;28;20457;-84
2022/07/19 06:51:54;;;;;;;7.93;5.80;;;33.60;40.40;;;;;;5042795;28;20448;-83
2022/07/19 06:54:21;;;;;;;8.50;6.33;;;33.60;40.70;;;;;;5050203;28;20449;-84
2022/07/19 06:56:48;;;;;;;7.40;6.30;;;33.70;40.60;;;;;;5041764;28;20474;-85
2022/07/19 06:59:14;;;;;;;8.90;6.33;;;34.10;39.50;;;;;;5042776;28;20522;-84
2022/07/19 07:01:41;;;;;;;10.10;6.20;;;34.30;39.20;;;;;;5042011;28;20452;-84
2022/07/19 07:04:08;;;;;;;10.77;6.37;;;34.60;38.90;;;;;;5043279;28;20447;-84
2022/07/19 07:06:36;;;;;;;11.87;6.70;;;35.30;38.10;;;;;;5042197;28;20469;-84
2022/07/19 07:09:03;;;;;;;7.30;5.97;;;35.80;37.10;;;;;;5041835;28;20448;-84
2022/07/19 07:11:30;;;;;;;8.03;4.93;;;34.90;37.40;;;;;;5042049;28;20451;-84
2022/07/19 07:13:57;;;;;;;8.83;5.13;;;34.90;37.70;;;;;;5050383;28;20457;-83
2022/07/19 07:16:24;;;;;;;6.33;4.77;;;35.20;37.50;;;;;;5056575;28;20449;-87
2022/07/19 07:18:50;;;;;;;11.30;4.90;;;35.50;36.70;;;;;;5039909;28;20484;-86
2022/07/19 07:21:19;;;;;;;7.20;5.40;;;36.40;36.00;;;;;;5041093;28;20928;-88
2022/07/19 07:23:47;;;;;;;8.63;5.40;;;37.00;34.90;;;;;;5042840;28;20535;-87
2022/07/19 07:26:14;;;;;;;8.57;5.20;;;37.50;34.40;;;;;;5038541;28;20476;-87
2022/07/19 07:28:40;;;;;;;8.17;5.27;;;37.80;33.60;;;;;;5044536;28;20469;-86
2022/07/19 07:31:07;;;;;;;4.77;4.33;;;37.80;33.30;;;;;;5039039;28;20618;-87
2022/07/19 07:33:34;;;;;;;4.50;4.10;;;37.40;33.50;;;;;;5038055;28;20452;-86
2022/07/19 07:36:01;;;;;;;5.03;3.90;;;37.70;33.00;;;;;;5033337;28;20500;-87
2022/07/19 07:38:27;;;;;;;5.27;4.10;;;37.30;33.50;;;;;;5034718;28;20441;-87
2022/07/19 07:40:56;;;;;;;5.63;4.10;;;37.70;33.60;;;;;;5033679;28;20489;-86
2022/07/19 07:43:22;;;;;;;4.43;4.03;;;37.80;33.50;;;;;;5033709;28;20456;-85
2022/07/19 07:45:49;;;;;;;8.80;4.17;;;37.90;33.20;;;;;;5033905;28;20479;-85
2022/07/19 07:48:16;;;;;;;8.53;4.83;;;38.80;32.30;;;;;;5033491;28;20454;-86
2022/07/19 07:50:42;;;;;;;5.40;3.60;;;39.10;31.80;;;;;;5038620;28;20867;-86
2022/07/19 07:53:09;;;;;;;6.50;4.20;;;39.80;31.00;;;;;;5042225;28;20450;-86
2022/07/19 07:55:39;;;;;;;4.90;3.60;;;40.40;30.00;;;;;;5039568;28;21000;-87
2022/07/19 07:58:08;;;;;;;4.30;3.90;;;41.20;30.10;;;;;;5034484;28;20556;-86
2022/07/19 08:00:35;;;;;;;8.57;4.20;;;41.70;29.30;;;;;;5033065;28;20572;-86
2022/07/19 08:03:02;;;;;;;4.40;3.70;;;42.20;28.60;;;;;;5032337;28;20450;-84
2022/07/19 08:05:29;;;;;;;4.70;3.90;;;42.30;28.10;;;;;;5032667;28;20466;-83
2022/07/19 08:07:58;;;;;;;3.67;3.37;;;42.10;28.00;;;;;;5034312;28;20449;-89
2022/07/19 08:10:27;;;;;;;5.13;3.70;;;41.50;28.10;;;;;;5033354;28;20441;-85
2022/07/19 08:12:54;;;;;;;3.93;3.60;;;41.50;28.50;;;;;;5037206;28;20457;-82
2022/07/19 08:15:22;;;;;;;6.40;3.70;;;41.80;27.80;;;;;;5049496;28;21032;-85
2022/07/19 08:17:49;;;;;;;4.10;3.70;;;42.40;27.70;;;;;;5047890;28;20442;-84
2022/07/19 08:20:16;;;;;;;4.77;4.07;;;42.90;27.30;;;;;;5045546;28;21067;-83
2022/07/19 08:22:44;;;;;;;7.90;4.80;;;43.70;26.40;;;;;;5035365;28;20454;-84
2022/07/19 08:25:14;;;;;;;5.23;4.03;;;43.60;26.00;;;;;;5035704;28;20477;-84
2022/07/19 08:27:41;;;;;;;5.40;4.57;;;44.00;25.90;;;;;;5036328;28;20477;-85
2022/07/19 08:30:09;;;;;;;9.80;4.70;;;44.30;25.20;;;;;;5036256;28;20442;-83
2022/07/19 08:32:37;;;;;;;4.90;4.43;;;44.30;25.20;;;;;;5039348;28;20446;-85
2022/07/19 08:35:05;;;;;;;6.80;4.20;;;44.20;25.30;;;;;;5037261;28;20478;-85
2022/07/19 08:37:32;;;;;;;6.30;4.53;;;43.50;25.10;;;;;;5036924;28;20446;-83
2022/07/19 08:39:58;;;;;;;5.43;4.93;;;43.20;25.80;;;;;;5039686;28;20555;-84
2022/07/19 08:42:26;;;;;;;5.77;4.27;;;43.50;25.30;;;;;;5038011;28;20826;-84
2022/07/19 08:44:54;;;;;;;4.37;3.17;;;43.60;24.90;;;;;;5039449;28;20446;-86
2022/07/19 08:47:22;;;;;;;5.17;3.10;;;43.60;24.20;;;;;;5044756;28;20450;-86
2022/07/19 08:49:50;;;;;;;4.93;3.57;;;42.50;24.10;;;;;;5037919;28;20492;-87
2022/07/19 08:52:18;;;;;;;4.77;3.13;;;42.90;24.50;;;;;;5039002;28;20446;-87
2022/07/19 08:54:45;;;;;;;4.43;3.30;;;42.80;24.30;;;;;;5035627;28;20438;-87
2022/07/19 08:59:56;;;;;;;2.27;2.07;;;43.80;24.00;;;;;;5035279;28;20474;-86
2022/07/19 09:02:23;;;;;;;2.77;2.57;;;43.20;22.60;;;;;;5030430;28;20447;-86
2022/07/19 09:05:02;;;;;;;2.83;2.50;;;42.30;22.80;;;;;;5037288;28;20445;-86
2022/07/19 09:07:29;;;;;;;4.03;2.60;;;41.40;24.00;;;;;;5053278;28;20441;-86
2022/07/19 09:10:15;;;;;;;3.23;2.53;;;41.50;24.40;;;;;;5056855;28;20440;-84
2022/07/19 09:13:04;;;;;;;4.67;2.60;;;41.20;24.10;;;;;;5054167;28;20787;-85
2022/07/19 09:15:43;;;;;;;3.50;2.53;;;41.30;23.10;;;;;;5036667;28;20458;-85
2022/07/19 09:18:12;;;;;;;4.33;3.30;;;41.90;23.90;;;;;;5037045;28;21024;-86
2022/07/19 09:20:41;;;;;;;3.33;3.03;;;41.20;23.10;;;;;;5036811;28;20509;-87
2022/07/19 09:23:08;;;;;;;2.80;2.60;;;40.80;23.60;;;;;;5038153;28;20591;-86
2022/07/19 09:25:40;;;;;;;3.30;3.00;;;40.70;23.40;;;;;;5030206;28;21016;-87
2022/07/19 09:28:07;;;;;;;4.10;3.53;;;40.50;23.90;;;;;;5037826;28;20947;-87
2022/07/19 09:30:37;;;;;;;2.90;2.60;;;40.40;23.30;;;;;;5036306;28;20461;-87
2022/07/19 09:33:10;;;;;;;5.47;3.07;;;40.70;23.40;;;;;;5034485;28;20493;-86
2022/07/19 09:35:38;;;;;;;4.00;3.23;;;40.90;23.20;;;;;;5037161;28;20461;-87
2022/07/19 09:38:24;;;;;;;4.23;3.00;;;41.40;23.30;;;;;;5035053;28;20461;-87
2022/07/19 09:40:54;;;;;;;3.53;3.23;;;41.70;22.70;;;;;;5041243;28;20572;-85
2022/07/19 09:43:53;;;;;;;3.50;2.70;;;41.70;22.60;;;;;;5031994;28;20446;-85
2022/07/19 09:46:31;;;;;;;4.27;2.80;;;41.70;22.20;;;;;;4989643;28;20493;-85
2022/07/19 09:49:08;;;;;;;3.57;3.27;;;42.70;21.90;;;;;;5027118;28;20438;-85
2022/07/19 09:51:37;;;;;;;3.23;3.00;;;42.40;22.10;;;;;;5035553;28;20492;-84
2022/07/19 09:54:06;;;;;;;3.77;3.13;;;42.10;22.30;;;;;;5037018;28;20454;-85
2022/07/19 09:56:33;;;;;;;4.90;3.10;;;41.70;22.00;;;;;;5033467;28;20509;-85
2022/07/19 09:59:00;;;;;;;3.60;3.00;;;41.30;22.40;;;;;;5024726;28;20489;-85
2022/07/19 10:01:29;;;;;;;3.97;3.60;;;40.70;23.00;;;;;;5032236;28;20447;-84
2022/07/19 10:03:58;;;;;;;5.10;3.73;;;40.50;23.00;;;;;;5032148;28;20504;-84
2022/07/19 10:06:26;;;;;;;3.60;3.10;;;40.60;22.60;;;;;;5031466;28;20850;-86
2022/07/19 10:08:54;;;;;;;4.40;3.30;;;40.70;23.10;;;;;;5031893;28;20450;-87
2022/07/19 10:11:22;;;;;;;4.10;3.50;;;41.00;22.90;;;;;;5031478;28;20446;-87
2022/07/19 10:13:50;;;;;;;3.07;2.77;;;41.40;23.00;;;;;;5032401;28;20477;-84
2022/07/19 10:16:31;;;;;;;3.53;3.23;;;41.70;22.50;;;;;;5032713;28;20468;-87
2022/07/19 10:19:05;;;;;;;6.57;3.40;;;41.90;22.30;;;;;;5032934;28;20446;-87
2022/07/19 10:21:33;;;;;;;4.90;4.00;;;41.40;22.50;;;;;;5032528;28;20477;-87
2022/07/19 10:24:01;;;;;;;4.60;3.30;;;42.00;21.70;;;;;;5031853;28;20446;-85
2022/07/19 10:26:36;;;;;;;4.83;4.33;;;42.90;21.60;;;;;;5035554;28;20466;-86
2022/07/19 10:29:11;;;;;;;4.97;3.90;;;43.70;21.20;;;;;;5057486;28;20524;-85
2022/07/19 10:31:40;;;;;;;4.93;3.30;;;44.50;20.70;;;;;;5035654;28;20441;-86
2022/07/19 10:34:08;;;;;;;3.30;3.00;;;43.50;20.60;;;;;;5019336;28;20456;-86
2022/07/19 10:36:39;;;;;;;4.53;4.13;;;44.00;21.20;;;;;;5022062;28;20470;-86
2022/07/19 10:39:26;;;;;;;4.07;3.77;;;44.00;20.70;;;;;;5037586;28;20449;-86
2022/07/19 10:42:13;;;;;;;3.30;3.00;;;43.70;21.40;;;;;;5031863;28;20450;-85
2022/07/19 10:45:12;;;;;;;3.90;3.60;;;44.30;20.60;;;;;;5032395;28;20655;-85
2022/07/19 10:48:02;;;;;;;4.50;3.67;;;43.80;20.90;;;;;;5033279;28;20446;-85
2022/07/19 10:50:50;;;;;;;4.63;3.20;;;44.10;21.00;;;;;;5031061;28;20440;-85
2022/07/19 10:53:54;;;;;;;4.27;3.57;;;44.10;21.10;;;;;;5030755;28;20457;-85
2022/07/19 10:56:22;;;;;;;4.10;3.70;;;43.60;21.20;;;;;;5034161;28;20465;-87
2022/07/19 10:58:52;;;;;;;3.67;3.33;;;44.00;21.40;;;;;;5028955;28;20957;-87
2022/07/19 11:01:20;;;;;;;5.10;2.90;;;44.80;20.50;;;;;;5019122;28;20486;-84
2022/07/19 11:03:48;;;;;;;5.07;3.30;;;44.60;20.70;;;;;;5018872;28;20953;-86
2022/07/19 11:06:21;;;;;;;5.40;3.10;;;44.30;20.70;;;;;;5029627;28;21047;-86
2022/07/19 11:08:48;;;;;;;3.50;3.20;;;43.90;21.20;;;;;;5024909;28;20451;-85
2022/07/19 11:11:16;;;;;;;3.37;3.00;;;44.10;21.00;;;;;;5033085;28;20524;-87
2022/07/19 11:13:44;;;;;;;3.83;3.47;;;45.00;20.60;;;;;;5033814;28;20442;-87
2022/07/19 11:16:13;;;;;;;5.00;3.60;;;45.70;19.70;;;;;;5032292;28;20458;-86
2022/07/19 11:18:40;;;;;;;3.70;3.23;;;46.00;19.50;;;;;;5031952;28;20434;-86
2022/07/19 11:21:08;;;;;;;3.10;2.70;;;44.60;19.20;;;;;;5033618;28;20853;-87
2022/07/19 11:23:36;;;;;;;4.00;2.80;;;44.40;19.30;;;;;;5034339;28;20473;-86
2022/07/19 11:26:10;;;;;;;3.47;3.17;;;44.20;19.60;;;;;;5032178;28;20493;-87
2022/07/19 11:28:39;;;;;;;3.47;2.83;;;44.70;19.90;;;;;;5034654;28;20445;-85
2022/07/19 11:31:14;;;;;;;3.60;3.30;;;44.90;19.50;;;;;;5034139;28;20434;-87
2022/07/19 11:33:43;;;;;;;3.53;3.23;;;45.30;19.70;;;;;;5032788;28;20442;-88
2022/07/19 11:36:09;;;;;;;3.10;2.90;;;46.00;19.20;;;;;;5033362;28;20465;-84
2022/07/19 11:38:39;;;;;;;3.50;3.00;;;46.70;18.70;;;;;;5034268;28;20805;-86
2022/07/19 11:41:09;;;;;;;3.50;2.80;;;46.30;18.50;;;;;;5033479;28;20481;-88
2022/07/19 11:43:36;;;;;;;3.73;3.07;;;46.30;18.50;;;;;;5021905;28;20473;-86
2022/07/19 11:46:03;;;;;;;5.17;3.03;;;46.40;19.20;;;;;;5018954;28;20979;-86
2022/07/19 11:48:32;;;;;;;3.50;2.93;;;46.70;18.40;;;;;;5031453;28;20469;-84
2022/07/19 11:51:05;;;;;;;3.30;3.00;;;45.60;18.00;;;;;;5053833;28;20492;-85
2022/07/19 11:53:33;;;;;;;6.73;4.20;;;44.90;19.00;;;;;;5035103;28;20535;-85
2022/07/19 11:56:01;;;;;;;5.73;3.50;;;44.00;20.00;;;;;;5038626;28;20474;-86
2022/07/19 11:58:28;;;;;;;3.70;3.40;;;44.50;19.70;;;;;;5030755;28;20465;-86
2022/07/19 12:01:04;;;;;;;3.63;3.27;;;45.30;19.40;;;;;;5037072;28;20477;-86
2022/07/19 12:03:33;;;;;;;3.60;3.20;;;44.90;19.00;;;;;;5033180;28;20449;-84
2022/07/19 12:06:02;;;;;;;3.63;2.90;;;45.60;19.00;;;;;;5035092;28;20457;-85
2022/07/19 12:08:40;;;;;;;4.10;3.67;;;44.90;19.50;;;;;;5034025;28;20434;-86
2022/07/19 12:11:37;;;;;;;3.77;3.43;;;44.80;19.40;;;;;;5050529;28;20445;-84
2022/07/19 12:14:17;;;;;;;5.57;3.67;;;45.60;18.90;;;;;;5021616;28;20490;-85
2022/07/19 12:16:44;;;;;;;3.93;3.50;;;45.20;19.40;;;;;;5034403;28;20492;-86
2022/07/19 12:19:14;;;;;;;3.60;3.30;;;44.20;19.80;;;;;;5041176;28;20820;-86
2022/07/19 12:21:42;;;;;;;4.47;4.07;;;44.40;20.10;;;;;;5031149;28;20482;-84
2022/07/19 12:24:15;;;;;;;3.43;3.13;;;44.80;19.70;;;;;;5030733;28;20500;-84
2022/07/19 12:26:44;;;;;;;3.90;3.47;;;44.40;19.50;;;;;;5032715;28;20466;-83
2022/07/19 12:29:19;;;;;;;4.10;3.30;;;44.50;19.60;;;;;;5055095;28;20447;-87
2022/07/19 12:31:46;;;;;;;4.43;3.23;;;44.80;19.50;;;;;;5046673;28;20444;-85
2022/07/19 12:34:15;;;;;;;4.97;3.77;;;44.20;20.10;;;;;;5042237;28;20462;-84
2022/07/19 12:36:41;;;;;;;3.73;3.27;;;44.10;20.10;;;;;;5038603;28;20462;-87
2022/07/19 12:39:22;;;;;;;4.80;3.43;;;43.00;20.40;;;;;;5037926;28;20445;-86
2022/07/19 12:42:04;;;;;;;5.07;3.43;;;43.20;20.70;;;;;;5035635;28;20482;-84
2022/07/19 12:44:32;;;;;;;3.90;3.50;;;43.70;20.00;;;;;;5034167;28;20441;-85
2022/07/19 12:47:00;;;;;;;3.97;3.13;;;44.00;20.00;;;;;;5034274;28;20461;-84
2022/07/19 12:49:41;;;;;;;3.70;3.33;;;44.60;20.20;;;;;;5032934;28;20443;-85
2022/07/19 12:52:08;;;;;;;5.03;3.27;;;43.60;20.40;;;;;;5034507;28;20445;-87
2022/07/19 12:54:35;;;;;;;4.37;3.43;;;44.40;20.40;;;;;;5034207;28;20442;-85